sensor_id;sensor_type;location;lat;lon;timestamp;pressure;altitude;pressure_sealevel;temperature
8533;BMP280;4304;53.876;10.662;2023-03-01T00:01:18;103207.13;;;-0.73
8533;BMP280;4304;53.876;10.662;2023-03-01T00:03:44;103221.59;;;-0.74
8533;BMP280;4304;53.876;10.662;2023-03-01T00:06:10;103221.63;;;-0.71
8533;BMP280;4304;53.876;10.662;2023-03-01T00:08:35;103212.22;;;-0.73
8533;BMP280;4304;53.876;10.662;2023-03-01T00:13:26;103219.03;;;-0.72
8533;BMP280;4304;53.876;10.662;2023-03-01T00:15:51;103194.31;;;-0.75
8533;BMP280;4304;53.876;10.662;2023-03-01T00:18:16;103211.38;;;-0.72
8533;BMP280;4304;53.876;10.662;2023-03-01T00:20:49;103212.22;;;-0.73
8533;BMP280;4304;53.876;10.662;2023-03-01T00:23:14;103210.50;;;-0.74
8533;BMP280;4304;53.876;10.662;2023-03-01T00:25:43;103201.91;;;-0.78
8533;BMP280;4304;53.876;10.662;2023-03-01T00:28:08;103208.63;;;-0.84
8533;BMP280;4304;53.876;10.662;2023-03-01T00:30:34;103203.41;;;-0.90
8533;BMP280;4304;53.876;10.662;2023-03-01T00:32:59;103208.44;;;-0.94
8533;BMP280;4304;53.876;10.662;2023-03-01T00:35:24;103202.47;;;-0.95
8533;BMP280;4304;53.876;10.662;2023-03-01T00:37:50;103211.88;;;-0.92
8533;BMP280;4304;53.876;10.662;2023-03-01T00:40:26;103208.31;;;-1.00
8533;BMP280;4304;53.876;10.662;2023-03-01T00:42:52;103207.38;;;-1.05
8533;BMP280;4304;53.876;10.662;2023-03-01T00:45:17;103207.34;;;-1.07
8533;BMP280;4304;53.876;10.662;2023-03-01T00:47:43;103204.69;;;-1.13
8533;BMP280;4304;53.876;10.662;2023-03-01T00:50:09;103199.47;;;-1.19
8533;BMP280;4304;53.876;10.662;2023-03-01T00:52:35;103197.75;;;-1.18
8533;BMP280;4304;53.876;10.662;2023-03-01T00:55:00;103201.19;;;-1.18
8533;BMP280;4304;53.876;10.662;2023-03-01T00:57:26;103191.78;;;-1.20
8533;BMP280;4304;53.876;10.662;2023-03-01T00:59:51;103190.97;;;-1.19
8533;BMP280;4304;53.876;10.662;2023-03-01T01:02:20;103188.34;;;-1.22
8533;BMP280;4304;53.876;10.662;2023-03-01T01:04:46;103184.03;;;-1.26
8533;BMP280;4304;53.876;10.662;2023-03-01T01:07:12;103184.00;;;-1.27
8533;BMP280;4304;53.876;10.662;2023-03-01T01:09:38;103185.69;;;-1.27
8533;BMP280;4304;53.876;10.662;2023-03-01T01:12:03;103181.47;;;-1.26
8533;BMP280;4304;53.876;10.662;2023-03-01T01:14:29;103178.91;;;-1.27
8533;BMP280;4304;53.876;10.662;2023-03-01T01:16:55;103171.25;;;-1.27
8533;BMP280;4304;53.876;10.662;2023-03-01T01:19:20;103162.75;;;-1.27
8533;BMP280;4304;53.876;10.662;2023-03-01T01:21:46;103172.16;;;-1.24
8533;BMP280;4304;53.876;10.662;2023-03-01T01:24:13;103168.75;;;-1.23
8533;BMP280;4304;53.876;10.662;2023-03-01T01:26:42;103170.50;;;-1.22
8533;BMP280;4304;53.876;10.662;2023-03-01T01:29:08;103164.50;;;-1.24
8533;BMP280;4304;53.876;10.662;2023-03-01T01:31:36;103159.38;;;-1.26
8533;BMP280;4304;53.876;10.662;2023-03-01T01:34:04;103157.66;;;-1.25
8533;BMP280;4304;53.876;10.662;2023-03-01T01:36:31;103161.91;;;-1.26
8533;BMP280;4304;53.876;10.662;2023-03-01T01:38:57;103159.38;;;-1.26
8533;BMP280;4304;53.876;10.662;2023-03-01T01:41:24;103151.75;;;-1.24
8533;BMP280;4304;53.876;10.662;2023-03-01T01:44:12;103158.53;;;-1.26
8533;BMP280;4304;53.876;10.662;2023-03-01T01:47:00;103161.88;;;-1.27
8533;BMP280;4304;53.876;10.662;2023-03-01T01:49:51;103149.94;;;-1.28
8533;BMP280;4304;53.876;10.662;2023-03-01T01:52:27;103157.53;;;-1.32
8533;BMP280;4304;53.876;10.662;2023-03-01T01:57:40;103154.06;;;-1.37
8533;BMP280;4304;53.876;10.662;2023-03-01T02:00:14;103152.28;;;-1.40
8533;BMP280;4304;53.876;10.662;2023-03-01T02:02:43;103150.56;;;-1.42
8533;BMP280;4304;53.876;10.662;2023-03-01T02:05:22;103148.81;;;-1.43
8533;BMP280;4304;53.876;10.662;2023-03-01T02:07:53;103149.56;;;-1.49
8533;BMP280;4304;53.876;10.662;2023-03-01T02:10:24;103145.25;;;-1.51
8533;BMP280;4304;53.876;10.662;2023-03-01T02:12:52;103129.88;;;-1.56
8533;BMP280;4304;53.876;10.662;2023-03-01T02:15:19;103138.31;;;-1.58
8533;BMP280;4304;53.876;10.662;2023-03-01T02:17:48;103123.81;;;-1.62
8533;BMP280;4304;53.876;10.662;2023-03-01T02:20:26;103122.94;;;-1.63
8533;BMP280;4304;53.876;10.662;2023-03-01T02:22:59;103115.28;;;-1.63
8533;BMP280;4304;53.876;10.662;2023-03-01T02:25:47;103111.81;;;-1.66
8533;BMP280;4304;53.876;10.662;2023-03-01T02:28:29;103102.41;;;-1.70
8533;BMP280;4304;53.876;10.662;2023-03-01T02:31:06;103110.78;;;-1.75
8533;BMP280;4304;53.876;10.662;2023-03-01T02:33:52;103109.97;;;-1.74
8533;BMP280;4304;53.876;10.662;2023-03-01T02:36:36;103103.13;;;-1.75
8533;BMP280;4304;53.876;10.662;2023-03-01T02:39:51;103095.47;;;-1.75
8533;BMP280;4304;53.876;10.662;2023-03-01T02:42:35;103095.44;;;-1.77
8533;BMP280;4304;53.876;10.662;2023-03-01T02:45:04;103102.94;;;-1.86
8533;BMP280;4304;53.876;10.662;2023-03-01T02:47:36;103098.75;;;-1.82
8533;BMP280;4304;53.876;10.662;2023-03-01T02:53:01;103099.53;;;-1.86
8533;BMP280;4304;53.876;10.662;2023-03-01T02:55:30;103085.94;;;-1.85
8533;BMP280;4304;53.876;10.662;2023-03-01T02:57:56;103092.72;;;-1.86
8533;BMP280;4304;53.876;10.662;2023-03-01T03:00:49;103099.53;;;-1.86
8533;BMP280;4304;53.876;10.662;2023-03-01T03:03:22;103095.25;;;-1.87
8533;BMP280;4304;53.876;10.662;2023-03-01T03:05:52;103096.94;;;-1.88
8533;BMP280;4304;53.876;10.662;2023-03-01T03:08:38;103091.91;;;-1.85
8533;BMP280;4304;53.876;10.662;2023-03-01T03:11:07;103086.91;;;-1.79
8533;BMP280;4304;53.876;10.662;2023-03-01T03:13:37;103098.00;;;-1.78
8533;BMP280;4304;53.876;10.662;2023-03-01T03:16:14;103103.00;;;-1.83
8533;BMP280;4304;53.876;10.662;2023-03-01T03:18:48;103106.47;;;-1.79
8533;BMP280;4304;53.876;10.662;2023-03-01T03:21:23;103094.53;;;-1.80
8533;BMP280;4304;53.876;10.662;2023-03-01T03:24:17;103103.94;;;-1.78
8533;BMP280;4304;53.876;10.662;2023-03-01T03:29:16;103089.47;;;-1.79
8533;BMP280;4304;53.876;10.662;2023-03-01T03:31:42;103083.44;;;-1.84
8533;BMP280;4304;53.876;10.662;2023-03-01T03:34:07;103079.00;;;-1.92
8533;BMP280;4304;53.876;10.662;2023-03-01T03:36:32;103064.56;;;-1.92
8533;BMP280;4304;53.876;10.662;2023-03-01T03:38:57;103077.44;;;-1.86
8533;BMP280;4304;53.876;10.662;2023-03-01T03:41:23;103083.38;;;-1.85
8533;BMP280;4304;53.876;10.662;2023-03-01T03:43:48;103074.94;;;-1.84
8533;BMP280;4304;53.876;10.662;2023-03-01T03:46:14;103062.13;;;-1.87
8533;BMP280;4304;53.876;10.662;2023-03-01T03:48:44;103076.59;;;-1.86
8533;BMP280;4304;53.876;10.662;2023-03-01T03:51:15;103069.81;;;-1.86
8533;BMP280;4304;53.876;10.662;2023-03-01T03:53:42;103074.06;;;-1.86
8533;BMP280;4304;53.876;10.662;2023-03-01T03:56:07;103064.81;;;-1.81
8533;BMP280;4304;53.876;10.662;2023-03-01T03:58:33;103058.81;;;-1.83
8533;BMP280;4304;53.876;10.662;2023-03-01T04:00:59;103069.09;;;-1.79
8533;BMP280;4304;53.876;10.662;2023-03-01T04:03:27;103078.50;;;-1.76
8533;BMP280;4304;53.876;10.662;2023-03-01T04:05:53;103079.28;;;-1.79
8533;BMP280;4304;53.876;10.662;2023-03-01T04:08:22;103067.41;;;-1.78
8533;BMP280;4304;53.876;10.662;2023-03-01T04:10:50;103066.44;;;-1.85
8533;BMP280;4304;53.876;10.662;2023-03-01T04:13:19;103061.28;;;-1.88
8533;BMP280;4304;53.876;10.662;2023-03-01T04:15:46;103061.28;;;-1.88
8533;BMP280;4304;53.876;10.662;2023-03-01T04:18:14;103071.38;;;-1.92
8533;BMP280;4304;53.876;10.662;2023-03-01T04:20:39;103077.38;;;-1.89
8533;BMP280;4304;53.876;10.662;2023-03-01T04:23:10;103076.31;;;-2.00
8533;BMP280;4304;53.876;10.662;2023-03-01T04:25:46;103083.03;;;-2.03
8533;BMP280;4304;53.876;10.662;2023-03-01T04:28:14;103087.28;;;-2.04
8533;BMP280;4304;53.876;10.662;2023-03-01T04:30:40;103070.22;;;-2.08
8533;BMP280;4304;53.876;10.662;2023-03-01T04:33:06;103075.38;;;-2.05
8533;BMP280;4304;53.876;10.662;2023-03-01T04:35:32;103076.28;;;-2.01
8533;BMP280;4304;53.876;10.662;2023-03-01T04:37:58;103077.16;;;-2.01
8533;BMP280;4304;53.876;10.662;2023-03-01T04:40:23;103074.63;;;-1.99
8533;BMP280;4304;53.876;10.662;2023-03-01T04:42:49;103061.94;;;-1.98
8533;BMP280;4304;53.876;10.662;2023-03-01T04:45:14;103061.97;;;-1.96
8533;BMP280;4304;53.876;10.662;2023-03-01T04:47:40;103073.16;;;-1.88
8533;BMP280;4304;53.876;10.662;2023-03-01T04:50:07;103062.97;;;-1.88
8533;BMP280;4304;53.876;10.662;2023-03-01T04:52:33;103067.16;;;-1.90
8533;BMP280;4304;53.876;10.662;2023-03-01T04:54:58;103072.34;;;-1.86
8533;BMP280;4304;53.876;10.662;2023-03-01T04:57:23;103069.91;;;-1.81
8533;BMP280;4304;53.876;10.662;2023-03-01T04:59:48;103066.53;;;-1.79
8533;BMP280;4304;53.876;10.662;2023-03-01T05:02:14;103074.28;;;-1.74
8533;BMP280;4304;53.876;10.662;2023-03-01T05:04:39;103078.56;;;-1.73
8533;BMP280;4304;53.876;10.662;2023-03-01T05:07:04;103081.19;;;-1.68
8533;BMP280;4304;53.876;10.662;2023-03-01T05:09:30;103070.16;;;-1.68
8533;BMP280;4304;53.876;10.662;2023-03-01T05:11:55;103071.88;;;-1.66
8533;BMP280;4304;53.876;10.662;2023-03-01T05:14:20;103073.59;;;-1.66
8533;BMP280;4304;53.876;10.662;2023-03-01T05:16:46;103077.00;;;-1.64
8533;BMP280;4304;53.876;10.662;2023-03-01T05:19:12;103063.56;;;-1.57
8533;BMP280;4304;53.876;10.662;2023-03-01T05:21:41;103078.00;;;-1.58
8533;BMP280;4304;53.876;10.662;2023-03-01T05:24:27;103068.66;;;-1.59
8533;BMP280;4304;53.876;10.662;2023-03-01T05:26:52;103065.19;;;-1.61
8533;BMP280;4304;53.876;10.662;2023-03-01T05:29:19;103065.19;;;-1.62
8533;BMP280;4304;53.876;10.662;2023-03-01T05:31:58;103078.78;;;-1.62
8533;BMP280;4304;53.876;10.662;2023-03-01T05:34:35;103078.88;;;-1.56
8533;BMP280;4304;53.876;10.662;2023-03-01T05:37:01;103069.41;;;-1.63
8533;BMP280;4304;53.876;10.662;2023-03-01T05:39:28;103064.25;;;-1.66
8533;BMP280;4304;53.876;10.662;2023-03-01T05:41:55;103065.97;;;-1.65
8533;BMP280;4304;53.876;10.662;2023-03-01T05:44:21;103072.69;;;-1.68
8533;BMP280;4304;53.876;10.662;2023-03-01T05:46:46;103061.56;;;-1.73
8533;BMP280;4304;53.876;10.662;2023-03-01T05:49:12;103064.19;;;-1.70
8533;BMP280;4304;53.876;10.662;2023-03-01T05:51:39;103061.63;;;-1.70
8533;BMP280;4304;53.876;10.662;2023-03-01T05:54:05;103059.06;;;-1.70
8533;BMP280;4304;53.876;10.662;2023-03-01T05:56:32;103050.53;;;-1.72
8533;BMP280;4304;53.876;10.662;2023-03-01T05:58:59;103050.50;;;-1.75
8533;BMP280;4304;53.876;10.662;2023-03-01T06:01:24;103037.78;;;-1.72
8533;BMP280;4304;53.876;10.662;2023-03-01T06:03:49;103041.91;;;-1.80
8533;BMP280;4304;53.876;10.662;2023-03-01T06:06:15;103036.84;;;-1.78
8533;BMP280;4304;53.876;10.662;2023-03-01T06:08:40;103037.69;;;-1.78
8533;BMP280;4304;53.876;10.662;2023-03-01T06:11:05;103038.59;;;-1.74
8533;BMP280;4304;53.876;10.662;2023-03-01T06:13:32;103039.53;;;-1.70
8533;BMP280;4304;53.876;10.662;2023-03-01T06:15:57;103036.06;;;-1.73
8533;BMP280;4304;53.876;10.662;2023-03-01T06:18:22;103043.78;;;-1.70
8533;BMP280;4304;53.876;10.662;2023-03-01T06:20:54;103027.53;;;-1.76
8533;BMP280;4304;53.876;10.662;2023-03-01T06:23:21;103036.81;;;-1.80
8533;BMP280;4304;53.876;10.662;2023-03-01T06:25:46;103037.81;;;-1.71
8533;BMP280;4304;53.876;10.662;2023-03-01T06:28:11;103043.81;;;-1.69
8533;BMP280;4304;53.876;10.662;2023-03-01T06:30:37;103032.03;;;-1.62
8533;BMP280;4304;53.876;10.662;2023-03-01T06:33:02;103042.31;;;-1.56
8533;BMP280;4304;53.876;10.662;2023-03-01T06:35:30;103033.91;;;-1.52
8533;BMP280;4304;53.876;10.662;2023-03-01T06:37:57;103047.53;;;-1.50
8533;BMP280;4304;53.876;10.662;2023-03-01T06:40:23;103038.13;;;-1.53
8533;BMP280;4304;53.876;10.662;2023-03-01T06:42:49;103048.53;;;-1.44
8533;BMP280;4304;53.876;10.662;2023-03-01T06:45:16;103051.97;;;-1.40
8533;BMP280;4304;53.876;10.662;2023-03-01T06:47:42;103055.41;;;-1.38
8533;BMP280;4304;53.876;10.662;2023-03-01T06:50:08;103058.06;;;-1.32
8533;BMP280;4304;53.876;10.662;2023-03-01T06:52:33;103053.88;;;-1.29
8533;BMP280;4304;53.876;10.662;2023-03-01T06:54:59;103053.13;;;-1.24
8533;BMP280;4304;53.876;10.662;2023-03-01T06:57:24;103055.72;;;-1.21
8533;BMP280;4304;53.876;10.662;2023-03-01T06:59:50;103051.47;;;-1.20
8533;BMP280;4304;53.876;10.662;2023-03-01T07:02:15;103057.56;;;-1.12
8533;BMP280;4304;53.876;10.662;2023-03-01T07:04:41;103045.63;;;-1.13
8533;BMP280;4304;53.876;10.662;2023-03-01T07:07:06;103047.34;;;-1.12
8533;BMP280;4304;53.876;10.662;2023-03-01T07:09:32;103041.50;;;-1.05
8533;BMP280;4304;53.876;10.662;2023-03-01T07:11:57;103043.38;;;-0.95
8533;BMP280;4304;53.876;10.662;2023-03-01T07:14:22;103037.50;;;-0.91
8533;BMP280;4304;53.876;10.662;2023-03-01T07:16:51;103039.28;;;-0.86
8533;BMP280;4304;53.876;10.662;2023-03-01T07:19:16;103033.41;;;-0.79
8533;BMP280;4304;53.876;10.662;2023-03-01T07:21:41;103037.75;;;-0.75
8533;BMP280;4304;53.876;10.662;2023-03-01T07:24:07;103045.50;;;-0.68
8533;BMP280;4304;53.876;10.662;2023-03-01T07:26:33;103038.81;;;-0.60
8533;BMP280;4304;53.876;10.662;2023-03-01T07:29:00;103036.44;;;-0.46
8533;BMP280;4304;53.876;10.662;2023-03-01T07:31:25;103041.66;;;-0.41
8533;BMP280;4304;53.876;10.662;2023-03-01T07:33:53;103036.56;;;-0.39
8533;BMP280;4304;53.876;10.662;2023-03-01T07:36:19;103044.38;;;-0.27
8533;BMP280;4304;53.876;10.662;2023-03-01T07:38:44;103045.38;;;-0.16
8533;BMP280;4304;53.876;10.662;2023-03-01T07:41:09;103052.28;;;-0.09
8533;BMP280;4304;53.876;10.662;2023-03-01T07:43:34;103046.34;;;-0.05
8533;BMP280;4304;53.876;10.662;2023-03-01T07:46:01;103046.38;;;-0.02
8533;BMP280;4304;53.876;10.662;2023-03-01T07:48:27;103057.63;;;0.10
8533;BMP280;4304;53.876;10.662;2023-03-01T07:50:53;103053.34;;;0.09
8533;BMP280;4304;53.876;10.662;2023-03-01T07:53:18;103043.19;;;0.13
8533;BMP280;4304;53.876;10.662;2023-03-01T07:55:43;103046.59;;;0.15
8533;BMP280;4304;53.876;10.662;2023-03-01T07:58:09;103053.50;;;0.24
8533;BMP280;4304;53.876;10.662;2023-03-01T08:00:34;103047.53;;;0.22
8533;BMP280;4304;53.876;10.662;2023-03-01T08:03:00;103053.53;;;0.25
8533;BMP280;4304;53.876;10.662;2023-03-01T08:05:26;103054.50;;;0.38
8533;BMP280;4304;53.876;10.662;2023-03-01T08:07:51;103057.97;;;0.41
8533;BMP280;4304;53.876;10.662;2023-03-01T08:10:17;103055.50;;;0.50
8533;BMP280;4304;53.876;10.662;2023-03-01T08:12:42;103055.69;;;0.69
8533;BMP280;4304;53.876;10.662;2023-03-01T08:15:08;103055.81;;;0.83
8533;BMP280;4304;53.876;10.662;2023-03-01T08:17:33;103054.97;;;0.85
8533;BMP280;4304;53.876;10.662;2023-03-01T08:19:58;103048.16;;;0.90
8533;BMP280;4304;53.876;10.662;2023-03-01T08:22:24;103053.38;;;0.99
8533;BMP280;4304;53.876;10.662;2023-03-01T08:24:49;103040.53;;;0.94
8533;BMP280;4304;53.876;10.662;2023-03-01T08:27:15;103049.16;;;1.02
8533;BMP280;4304;53.876;10.662;2023-03-01T08:29:41;103050.97;;;1.15
8533;BMP280;4304;53.876;10.662;2023-03-01T08:32:06;103057.78;;;1.13
8533;BMP280;4304;53.876;10.662;2023-03-01T08:34:31;103051.75;;;1.08
8533;BMP280;4304;53.876;10.662;2023-03-01T08:36:57;103055.31;;;1.31
8533;BMP280;4304;53.876;10.662;2023-03-01T08:39:22;103051.88;;;1.29
8533;BMP280;4304;53.876;10.662;2023-03-01T08:41:47;103062.13;;;1.27
8533;BMP280;4304;53.876;10.662;2023-03-01T08:44:14;103052.81;;;1.40
8533;BMP280;4304;53.876;10.662;2023-03-01T08:46:42;103046.94;;;1.57
8533;BMP280;4304;53.876;10.662;2023-03-01T08:49:16;103053.81;;;1.67
8533;BMP280;4304;53.876;10.662;2023-03-01T08:51:42;103052.97;;;1.61
8533;BMP280;4304;53.876;10.662;2023-03-01T08:54:13;103064.09;;;1.71
8533;BMP280;4304;53.876;10.662;2023-03-01T08:56:40;103058.13;;;1.71
8533;BMP280;4304;53.876;10.662;2023-03-01T08:59:05;103054.00;;;1.95
8533;BMP280;4304;53.876;10.662;2023-03-01T09:01:30;103063.44;;;2.05
8533;BMP280;4304;53.876;10.662;2023-03-01T09:03:56;103065.16;;;2.11
8533;BMP280;4304;53.876;10.662;2023-03-01T09:06:21;103061.72;;;2.07
8533;BMP280;4304;53.876;10.662;2023-03-01T09:08:48;103063.44;;;2.05
8533;BMP280;4304;53.876;10.662;2023-03-01T09:11:16;103066.84;;;2.09
8533;BMP280;4304;53.876;10.662;2023-03-01T09:13:43;103071.19;;;2.20
8533;BMP280;4304;53.876;10.662;2023-03-01T09:16:10;103067.78;;;2.28
8533;BMP280;4304;53.876;10.662;2023-03-01T09:18:35;103069.53;;;2.50
8533;BMP280;4304;53.876;10.662;2023-03-01T09:21:15;103063.59;;;2.76
8533;BMP280;4304;53.876;10.662;2023-03-01T09:23:42;103062.72;;;2.98
8533;BMP280;4304;53.876;10.662;2023-03-01T09:26:10;103062.75;;;3.26
8533;BMP280;4304;53.876;10.662;2023-03-01T09:28:36;103050.75;;;3.18
8533;BMP280;4304;53.876;10.662;2023-03-01T09:31:02;103060.13;;;3.50
8533;BMP280;4304;53.876;10.662;2023-03-01T09:33:29;103062.66;;;3.65
8533;BMP280;4304;53.876;10.662;2023-03-01T09:35:59;103051.41;;;3.94
8533;BMP280;4304;53.876;10.662;2023-03-01T09:38:25;103064.28;;;3.94
8533;BMP280;4304;53.876;10.662;2023-03-01T09:40:50;103053.06;;;4.07
8533;BMP280;4304;53.876;10.662;2023-03-01T09:43:29;103064.22;;;4.12
8533;BMP280;4304;53.876;10.662;2023-03-01T09:46:04;103070.91;;;4.42
8533;BMP280;4304;53.876;10.662;2023-03-01T09:48:37;103059.63;;;4.58
8533;BMP280;4304;53.876;10.662;2023-03-01T09:51:09;103062.94;;;4.76
8533;BMP280;4304;53.876;10.662;2023-03-01T09:53:37;103051.81;;;4.74
8533;BMP280;4304;53.876;10.662;2023-03-01T09:56:15;103045.78;;;4.78
8533;BMP280;4304;53.876;10.662;2023-03-01T09:58:52;103048.03;;;5.14
8533;BMP280;4304;53.876;10.662;2023-03-01T10:01:32;103049.88;;;5.00
8533;BMP280;4304;53.876;10.662;2023-03-01T10:04:10;103043.78;;;5.10
8533;BMP280;4304;53.876;10.662;2023-03-01T10:06:36;103052.06;;;5.43
8533;BMP280;4304;53.876;10.662;2023-03-01T10:09:12;103058.94;;;5.43
8533;BMP280;4304;53.876;10.662;2023-03-01T10:11:42;103059.75;;;5.48
8533;BMP280;4304;53.876;10.662;2023-03-01T10:14:30;103051.22;;;5.41
8533;BMP280;4304;53.876;10.662;2023-03-01T10:17:02;103060.31;;;5.78
8533;BMP280;4304;53.876;10.662;2023-03-01T10:19:41;103040.22;;;6.02
8533;BMP280;4304;53.876;10.662;2023-03-01T10:24:36;103048.53;;;6.23
8533;BMP280;4304;53.876;10.662;2023-03-01T10:27:07;103033.09;;;6.20
8533;BMP280;4304;53.876;10.662;2023-03-01T10:30:13;103042.44;;;6.85
8533;BMP280;4304;53.876;10.662;2023-03-01T10:32:43;103039.50;;;6.54
8533;BMP280;4304;53.876;10.662;2023-03-01T10:35:23;103037.00;;;7.02
8533;BMP280;4304;53.876;10.662;2023-03-01T10:38:05;103024.41;;;6.82
8533;BMP280;4304;53.876;10.662;2023-03-01T10:40:32;103031.78;;;7.05
8533;BMP280;4304;53.876;10.662;2023-03-01T10:43:00;103031.84;;;7.00
8533;BMP280;4304;53.876;10.662;2023-03-01T10:48:16;103019.91;;;7.40
8533;BMP280;4304;53.876;10.662;2023-03-01T10:50:44;103016.34;;;7.47
8533;BMP280;4304;53.876;10.662;2023-03-01T10:53:34;103026.59;;;7.51
8533;BMP280;4304;53.876;10.662;2023-03-01T10:56:11;103011.56;;;8.13
8533;BMP280;4304;53.876;10.662;2023-03-01T10:58:39;103008.44;;;7.96
8533;BMP280;4304;53.876;10.662;2023-03-01T11:01:26;103030.41;;;8.19
8533;BMP280;4304;53.876;10.662;2023-03-01T11:04:10;103006.78;;;8.33
8533;BMP280;4304;53.876;10.662;2023-03-01T11:06:37;103017.16;;;8.69
8533;BMP280;4304;53.876;10.662;2023-03-01T11:09:21;103032.72;;;8.69
8533;BMP280;4304;53.876;10.662;2023-03-01T11:11:52;103024.78;;;8.75
8533;BMP280;4304;53.876;10.662;2023-03-01T11:14:21;103044.81;;;8.68
8533;BMP280;4304;53.876;10.662;2023-03-01T11:16:57;103040.72;;;8.94
8533;BMP280;4304;53.876;10.662;2023-03-01T11:19:23;103032.78;;;8.66
8533;BMP280;4304;53.876;10.662;2023-03-01T11:22:07;103021.91;;;8.51
8533;BMP280;4304;53.876;10.662;2023-03-01T11:24:42;103013.75;;;8.67
8533;BMP280;4304;53.876;10.662;2023-03-01T11:29:54;103013.03;;;8.95
8533;BMP280;4304;53.876;10.662;2023-03-01T11:32:24;103008.19;;;8.82
8533;BMP280;4304;53.876;10.662;2023-03-01T11:34:55;103003.47;;;8.62
8533;BMP280;4304;53.876;10.662;2023-03-01T11:37:41;102998.25;;;8.64
8533;BMP280;4304;53.876;10.662;2023-03-01T11:40:44;102993.59;;;8.42
8533;BMP280;4304;53.876;10.662;2023-03-01T11:54:09;102967.78;;;7.61
8533;BMP280;4304;53.876;10.662;2023-03-01T11:56:41;102966.03;;;7.61
8533;BMP280;4304;53.876;10.662;2023-03-01T12:12:57;102971.31;;;7.12
8533;BMP280;4304;53.876;10.662;2023-03-01T12:15:49;102961.16;;;7.03
8533;BMP280;4304;53.876;10.662;2023-03-01T12:21:40;102956.38;;;7.25
8533;BMP280;4304;53.876;10.662;2023-03-01T12:24:21;102957.28;;;7.24
8533;BMP280;4304;53.876;10.662;2023-03-01T12:32:58;102960.19;;;6.59
8533;BMP280;4304;53.876;10.662;2023-03-01T12:38:11;102938.81;;;6.51
8533;BMP280;4304;53.876;10.662;2023-03-01T12:40:46;102946.50;;;6.55
8533;BMP280;4304;53.876;10.662;2023-03-01T12:43:41;102938.63;;;6.60
8533;BMP280;4304;53.876;10.662;2023-03-01T12:46:34;102935.94;;;6.67
8533;BMP280;4304;53.876;10.662;2023-03-01T12:49:08;102933.75;;;6.42
8533;BMP280;4304;53.876;10.662;2023-03-01T12:51:35;102933.03;;;6.36
8533;BMP280;4304;53.876;10.662;2023-03-01T12:54:11;102940.00;;;6.31
8533;BMP280;4304;53.876;10.662;2023-03-01T12:56:40;102935.00;;;6.17
8533;BMP280;4304;53.876;10.662;2023-03-01T12:59:19;102937.34;;;6.34
8533;BMP280;4304;53.876;10.662;2023-03-01T13:13:08;102937.94;;;5.96
8533;BMP280;4304;53.876;10.662;2023-03-01T13:15:36;102926.84;;;5.89
8533;BMP280;4304;53.876;10.662;2023-03-01T13:28:57;102927.50;;;6.01
8533;BMP280;4304;53.876;10.662;2023-03-01T13:33:55;102903.06;;;5.66
8533;BMP280;4304;53.876;10.662;2023-03-01T13:39:26;102901.22;;;5.77
8533;BMP280;4304;53.876;10.662;2023-03-01T13:42:25;102894.47;;;5.67
8533;BMP280;4304;53.876;10.662;2023-03-01T13:44:58;102897.78;;;5.76
8533;BMP280;4304;53.876;10.662;2023-03-01T13:47:24;102895.97;;;5.83
8533;BMP280;4304;53.876;10.662;2023-03-01T13:49:57;102881.88;;;5.43
8533;BMP280;4304;53.876;10.662;2023-03-01T13:52:42;102897.25;;;5.51
8533;BMP280;4304;53.876;10.662;2023-03-01T13:57:44;102890.22;;;5.60
8533;BMP280;4304;53.876;10.662;2023-03-01T14:00:36;102902.94;;;5.75
8533;BMP280;4304;53.876;10.662;2023-03-01T14:03:16;102892.00;;;5.55
8533;BMP280;4304;53.876;10.662;2023-03-01T14:05:58;102890.53;;;5.39
8533;BMP280;4304;53.876;10.662;2023-03-01T14:08:26;102899.91;;;5.43
8533;BMP280;4304;53.876;10.662;2023-03-01T14:19:40;102896.75;;;5.20
8533;BMP280;4304;53.876;10.662;2023-03-01T14:22:29;102899.63;;;4.97
8533;BMP280;4304;53.876;10.662;2023-03-01T14:24:57;102897.84;;;5.02
8533;BMP280;4304;53.876;10.662;2023-03-01T14:27:33;102901.41;;;4.89
8533;BMP280;4304;53.876;10.662;2023-03-01T14:30:44;102885.09;;;4.90
8533;BMP280;4304;53.876;10.662;2023-03-01T14:32:57;102882.53;;;4.87
8533;BMP280;4304;53.876;10.662;2023-03-01T14:35:34;102891.88;;;4.97
8533;BMP280;4304;53.876;10.662;2023-03-01T14:38:01;102887.69;;;4.87
8533;BMP280;4304;53.876;10.662;2023-03-01T14:40:28;102878.25;;;4.84
8533;BMP280;4304;53.876;10.662;2023-03-01T14:42:56;102867.97;;;4.81
8533;BMP280;4304;53.876;10.662;2023-03-01T14:45:27;102868.88;;;4.79
8533;BMP280;4304;53.876;10.662;2023-03-01T14:47:53;102865.53;;;4.71
8533;BMP280;4304;53.876;10.662;2023-03-01T14:50:28;102862.03;;;4.75
8533;BMP280;4304;53.876;10.662;2023-03-01T14:52:58;102856.06;;;4.73
8533;BMP280;4304;53.876;10.662;2023-03-01T14:57:52;102855.94;;;4.85
8533;BMP280;4304;53.876;10.662;2023-03-01T15:02:43;102864.44;;;4.91
8533;BMP280;4304;53.876;10.662;2023-03-01T15:05:14;102849.22;;;4.73
8533;BMP280;4304;53.876;10.662;2023-03-01T15:07:41;102851.72;;;4.78
8533;BMP280;4304;53.876;10.662;2023-03-01T15:10:16;102850.88;;;4.77
8533;BMP280;4304;53.876;10.662;2023-03-01T15:12:42;102848.34;;;4.71
8533;BMP280;4304;53.876;10.662;2023-03-01T15:17:59;102850.81;;;4.85
8533;BMP280;4304;53.876;10.662;2023-03-01T15:20:27;102842.25;;;4.80
8533;BMP280;4304;53.876;10.662;2023-03-01T15:22:55;102843.19;;;4.73
8533;BMP280;4304;53.876;10.662;2023-03-01T15:25:24;102846.63;;;4.72
8533;BMP280;4304;53.876;10.662;2023-03-01T15:27:51;102846.78;;;4.57
8533;BMP280;4304;53.876;10.662;2023-03-01T15:30:22;102849.25;;;4.69
8533;BMP280;4304;53.876;10.662;2023-03-01T15:32:49;102850.97;;;4.68
8533;BMP280;4304;53.876;10.662;2023-03-01T15:35:46;102847.47;;;4.72
8533;BMP280;4304;53.876;10.662;2023-03-01T15:41:37;102855.34;;;4.59
8533;BMP280;4304;53.876;10.662;2023-03-01T15:44:32;102850.19;;;4.59
8533;BMP280;4304;53.876;10.662;2023-03-01T15:46:58;102859.69;;;4.54
8533;BMP280;4304;53.876;10.662;2023-03-01T15:49:39;102855.34;;;4.59
8533;BMP280;4304;53.876;10.662;2023-03-01T15:52:09;102849.38;;;4.56
8533;BMP280;4304;53.876;10.662;2023-03-01T15:54:36;102847.63;;;4.59
8533;BMP280;4304;53.876;10.662;2023-03-01T15:57:03;102849.47;;;4.45
8533;BMP280;4304;53.876;10.662;2023-03-01T15:59:28;102848.59;;;4.49
8533;BMP280;4304;53.876;10.662;2023-03-01T16:01:53;102850.28;;;4.49
8533;BMP280;4304;53.876;10.662;2023-03-01T16:04:19;102846.69;;;4.66
8533;BMP280;4304;53.876;10.662;2023-03-01T16:06:51;102851.88;;;4.63
8533;BMP280;4304;53.876;10.662;2023-03-01T16:09:21;102840.09;;;4.38
8533;BMP280;4304;53.876;10.662;2023-03-01T16:11:46;102841.03;;;4.33
8533;BMP280;4304;53.876;10.662;2023-03-01T16:14:12;102853.13;;;4.19
8533;BMP280;4304;53.876;10.662;2023-03-01T16:16:37;102850.59;;;4.16